Time;durP1;ratioP1;P1;durP2;ratioP2;P2;SDS_P1;SDS_P2;PMS_P1;PMS_P2;Temp;Humidity;BMP_temperature;BMP_pressure;BME280_temperature;BME280_humidity;BME280_pressure;Samples;Min_cycle;Max_cycle;Signal;HPM_P1;HPM_P2
2023/10/15 00:00:24;;;;;;;4.78;0.90;;;13.80;75.00;;;;;;4824992;29;20540;-92
2023/10/15 00:02:52;;;;;;;7.07;0.97;;;13.70;74.70;;;;;;4824779;29;20054;-93
2023/10/15 00:05:21;;;;;;;5.82;0.90;;;13.60;74.50;;;;;;4824645;29;20057;-92
2023/10/15 00:07:50;;;;;;;8.48;0.77;;;13.70;74.30;;;;;;4825092;29;20047;-92
2023/10/15 00:10:25;;;;;;;6.20;1.15;;;13.60;73.20;;;;;;4827447;29;20050;-92
2023/10/15 00:12:54;;;;;;;4.70;1.00;;;13.60;73.10;;;;;;4824625;29;20478;-92
2023/10/15 00:15:27;;;;;;;5.87;0.80;;;13.70;73.60;;;;;;4824724;29;20046;-92
2023/10/15 00:17:59;;;;;;;8.43;1.02;;;13.70;73.30;;;;;;4824823;29;20050;-91
2023/10/15 00:20:40;;;;;;;6.10;1.25;;;13.70;74.60;;;;;;4826902;29;20621;-92
2023/10/15 00:23:09;;;;;;;5.90;1.13;;;13.60;75.30;;;;;;4827680;29;20129;-92
2023/10/15 00:25:41;;;;;;;7.97;1.23;;;13.50;75.90;;;;;;4827609;29;20096;-92
2023/10/15 00:28:09;;;;;;;6.23;0.80;;;13.50;76.10;;;;;;4813334;29;20061;-92
2023/10/15 00:30:39;;;;;;;5.85;1.13;;;13.40;76.50;;;;;;4827717;29;20494;-92
2023/10/15 00:33:11;;;;;;;6.60;1.45;;;13.40;76.00;;;;;;4827596;29;20046;-91
2023/10/15 00:35:44;;;;;;;6.47;1.15;;;13.40;75.90;;;;;;4827607;29;20054;-92
2023/10/15 00:38:16;;;;;;;7.75;1.23;;;13.40;75.90;;;;;;4827685;29;20058;-92
2023/10/15 00:40:45;;;;;;;8.20;1.37;;;13.40;75.90;;;;;;4828094;29;20046;-92
2023/10/15 00:43:17;;;;;;;6.25;1.10;;;13.30;76.10;;;;;;4809474;29;20046;-92
2023/10/15 00:45:46;;;;;;;7.75;1.75;;;13.30;75.70;;;;;;4830069;29;20072;-92
2023/10/15 00:51:20;;;;;;;6.32;1.20;;;13.30;75.70;;;;;;5154174;23;20115;-92
2023/10/15 00:53:53;;;;;;;9.63;1.67;;;13.30;75.90;;;;;;4827358;29;20046;-92
2023/10/15 00:56:26;;;;;;;12.40;2.20;;;13.20;76.10;;;;;;4822339;29;20046;-92
2023/10/15 01:01:26;;;;;;;10.48;1.55;;;13.30;75.60;;;;;;4827284;29;20095;-92
2023/10/15 01:03:59;;;;;;;11.02;1.50;;;13.30;75.30;;;;;;4817555;29;20133;-92
2023/10/15 01:06:35;;;;;;;8.00;1.60;;;13.30;75.60;;;;;;4812446;29;20046;-92
2023/10/15 01:09:19;;;;;;;8.60;1.50;;;13.40;75.80;;;;;;4827118;29;20042;-93
2023/10/15 01:11:51;;;;;;;8.43;1.38;;;13.40;75.90;;;;;;4823614;29;20042;-92
2023/10/15 01:14:52;;;;;;;8.90;1.67;;;13.30;75.80;;;;;;4809472;29;20057;-92
2023/10/15 01:17:12;;;;;;;9.02;1.30;;;13.30;75.80;;;;;;4824949;29;20085;-92
2023/10/15 01:19:39;;;;;;;7.37;1.50;;;13.40;75.70;;;;;;4814522;29;20081;-92
2023/10/15 01:22:10;;;;;;;8.30;1.67;;;13.50;75.60;;;;;;4826864;29;20047;-92
2023/10/15 01:24:38;;;;;;;10.02;1.38;;;13.50;76.00;;;;;;4826377;29;20082;-92
2023/10/15 01:29:40;;;;;;;6.75;1.45;;;13.20;76.50;;;;;;4827003;29;20122;-92
2023/10/15 01:32:13;;;;;;;8.93;1.00;;;13.00;76.70;;;;;;4826067;29;20047;-92
2023/10/15 01:34:45;;;;;;;7.55;1.02;;;13.00;77.20;;;;;;4826675;29;20107;-92
2023/10/15 01:37:24;;;;;;;7.28;1.10;;;13.00;77.40;;;;;;4811463;29;20062;-92
2023/10/15 01:40:00;;;;;;;9.13;1.73;;;13.00;77.40;;;;;;4808605;29;20061;-92
2023/10/15 01:45:13;;;;;;;7.07;1.00;;;13.20;76.80;;;;;;4826732;29;20050;-92
2023/10/15 01:50:23;;;;;;;6.88;1.05;;;13.30;76.80;;;;;;4826400;29;20191;-93
2023/10/15 01:52:54;;;;;;;6.28;1.27;;;13.20;77.00;;;;;;4826641;29;20111;-92
2023/10/15 01:55:24;;;;;;;5.65;1.13;;;13.10;76.90;;;;;;4826484;29;20082;-93
2023/10/15 01:57:54;;;;;;;6.07;0.90;;;13.10;76.60;;;;;;4811766;29;20054;-93
2023/10/15 02:00:34;;;;;;;8.10;1.00;;;13.20;76.90;;;;;;4826548;29;20053;-93
2023/10/15 02:03:01;;;;;;;6.18;1.20;;;13.10;77.20;;;;;;4826454;29;20058;-92
2023/10/15 02:05:41;;;;;;;9.68;1.08;;;13.10;77.10;;;;;;4811528;29;20057;-92
2023/10/15 02:08:13;;;;;;;7.65;1.05;;;13.10;76.80;;;;;;4826583;29;20054;-92
2023/10/15 02:10:46;;;;;;;8.77;1.17;;;13.10;76.60;;;;;;4826432;29;20091;-93
2023/10/15 02:13:19;;;;;;;6.80;0.85;;;13.10;76.60;;;;;;4809355;29;20050;-92
2023/10/15 02:15:49;;;;;;;7.20;1.17;;;13.20;76.50;;;;;;4820257;29;20459;-92
2023/10/15 02:18:19;;;;;;;7.43;1.10;;;13.20;76.60;;;;;;4793615;29;20055;-93
2023/10/15 02:23:20;;;;;;;8.70;1.20;;;13.20;76.20;;;;;;4826222;29;20137;-92
2023/10/15 02:25:58;;;;;;;6.75;1.13;;;13.30;76.00;;;;;;4811097;29;20046;-92
2023/10/15 02:28:31;;;;;;;7.53;1.27;;;13.20;75.90;;;;;;4826184;29;20409;-92
2023/10/15 02:33:38;;;;;;;5.72;1.02;;;13.30;75.70;;;;;;4826156;29;20057;-92
2023/10/15 02:36:16;;;;;;;9.43;1.53;;;13.10;75.60;;;;;;4811160;29;20062;-93
2023/10/15 02:38:53;;;;;;;10.95;1.63;;;13.10;76.00;;;;;;4826281;29;20063;-92
2023/10/15 02:41:21;;;;;;;10.65;1.27;;;13.00;75.10;;;;;;4825852;29;20070;-92
2023/10/15 02:43:53;;;;;;;7.63;1.20;;;13.00;75.10;;;;;;4825682;29;20525;-93
2023/10/15 02:46:25;;;;;;;5.90;1.00;;;13.00;75.30;;;;;;4811045;29;20387;-93
2023/10/15 02:48:53;;;;;;;8.43;1.43;;;13.00;75.40;;;;;;4811018;29;20130;-93
2023/10/15 02:51:24;;;;;;;7.07;1.52;;;13.10;75.90;;;;;;4810860;29;20081;-92
2023/10/15 02:53:54;;;;;;;7.35;1.15;;;13.10;76.30;;;;;;4825908;29;20050;-94
2023/10/15 02:56:22;;;;;;;5.60;1.42;;;13.00;76.70;;;;;;4825861;29;20484;-92
2023/10/15 02:58:50;;;;;;;6.00;1.23;;;13.00;76.90;;;;;;4825669;29;20097;-93
2023/10/15 03:01:20;;;;;;;9.07;1.40;;;13.00;77.20;;;;;;4825641;29;20050;-92
2023/10/15 03:03:50;;;;;;;9.38;1.75;;;13.00;77.00;;;;;;4810478;29;20497;-92
2023/10/15 03:06:18;;;;;;;5.88;1.13;;;13.00;77.00;;;;;;4825581;29;20050;-92
2023/10/15 03:08:46;;;;;;;6.60;1.25;;;13.00;77.30;;;;;;4825401;29;20054;-93
2023/10/15 03:11:18;;;;;;;6.47;0.95;;;13.00;77.10;;;;;;4810806;29;20078;-92
2023/10/15 03:13:55;;;;;;;7.97;1.17;;;13.00;77.20;;;;;;4810737;29;20107;-93
2023/10/15 03:16:35;;;;;;;7.28;1.20;;;13.00;77.10;;;;;;4825141;29;20451;-93
2023/10/15 03:19:17;;;;;;;7.10;1.20;;;13.10;77.10;;;;;;4825780;29;20061;-93
2023/10/15 03:21:44;;;;;;;5.90;0.93;;;13.00;77.30;;;;;;4825450;29;20058;-92
2023/10/15 03:24:16;;;;;;;7.97;1.40;;;13.00;77.30;;;;;;4810652;29;20055;-92
2023/10/15 03:26:48;;;;;;;8.77;1.30;;;12.80;76.90;;;;;;4807100;29;20088;-92
2023/10/15 03:29:21;;;;;;;9.63;1.00;;;12.80;77.10;;;;;;4803672;29;20545;-92
2023/10/15 03:31:54;;;;;;;8.05;1.30;;;12.80;76.10;;;;;;4825328;29;20516;-92
2023/10/15 03:34:22;;;;;;;10.60;1.38;;;12.70;74.00;;;;;;4810083;29;20142;-92
2023/10/15 03:36:51;;;;;;;5.57;0.88;;;12.70;75.20;;;;;;4810460;29;20050;-92
2023/10/15 03:39:44;;;;;;;7.03;1.03;;;12.60;74.10;;;;;;4810496;29;20054;-92
2023/10/15 03:44:47;;;;;;;5.30;0.98;;;12.80;74.80;;;;;;4824886;29;20054;-92
2023/10/15 03:47:16;;;;;;;8.18;1.50;;;12.80;75.10;;;;;;4811904;29;20051;-92
2023/10/15 03:49:46;;;;;;;7.40;1.35;;;12.90;75.30;;;;;;4791572;29;20085;-92
2023/10/15 03:52:14;;;;;;;6.77;1.30;;;12.90;75.80;;;;;;4811948;29;20046;-93
2023/10/15 03:54:47;;;;;;;7.40;1.20;;;13.00;76.10;;;;;;4811395;29;20050;-92
2023/10/15 03:57:22;;;;;;;7.20;1.30;;;13.00;76.30;;;;;;4828673;29;20054;-92
2023/10/15 03:59:55;;;;;;;5.20;1.33;;;13.00;76.40;;;;;;4828562;29;20145;-91
2023/10/15 04:02:39;;;;;;;6.95;1.58;;;13.00;76.50;;;;;;4810643;29;20047;-92
2023/10/15 04:05:14;;;;;;;4.43;1.20;;;13.00;76.50;;;;;;4808938;29;20050;-92
2023/10/15 04:07:48;;;;;;;8.63;1.30;;;13.00;76.30;;;;;;4828757;29;20054;-92
2023/10/15 04:10:23;;;;;;;5.00;1.25;;;12.80;76.70;;;;;;4813425;29;20501;-92
2023/10/15 04:12:51;;;;;;;6.05;1.17;;;12.70;76.60;;;;;;4828342;29;20080;-92
2023/10/15 04:15:22;;;;;;;7.70;1.45;;;12.50;77.20;;;;;;4809673;29;20051;-91
2023/10/15 04:17:51;;;;;;;5.27;1.37;;;12.50;77.80;;;;;;4812784;29;20516;-92
2023/10/15 04:20:35;;;;;;;14.57;3.10;;;12.40;77.90;;;;;;4828168;29;20046;-92
2023/10/15 04:23:03;;;;;;;10.27;2.70;;;12.30;78.00;;;;;;4828018;29;20064;-91
2023/10/15 04:25:36;;;;;;;7.38;2.00;;;12.30;78.40;;;;;;4810018;29;20046;-92
2023/10/15 04:28:08;;;;;;;9.15;2.75;;;12.30;78.50;;;;;;4825084;29;20050;-92
2023/10/15 04:30:39;;;;;;;8.63;1.83;;;12.30;78.50;;;;;;4827477;29;20049;-92
2023/10/15 04:33:28;;;;;;;10.05;2.10;;;12.40;78.80;;;;;;4828127;29;20054;-92
2023/10/15 04:35:57;;;;;;;10.20;2.13;;;12.40;78.30;;;;;;4827330;29;20130;-91
2023/10/15 04:38:30;;;;;;;7.70;1.88;;;12.40;78.20;;;;;;4812204;29;20085;-91
2023/10/15 04:43:25;;;;;;;7.13;1.80;;;12.40;78.20;;;;;;4826938;29;20137;-92
2023/10/15 04:45:57;;;;;;;10.75;1.80;;;12.50;78.00;;;;;;4810311;29;20123;-91
2023/10/15 04:48:30;;;;;;;11.35;1.85;;;12.40;76.50;;;;;;4826862;29;20137;-92
2023/10/15 04:51:42;;;;;;;5.38;1.45;;;12.40;76.40;;;;;;4823945;29;20062;-92
2023/10/15 04:53:51;;;;;;;6.80;1.30;;;12.40;76.40;;;;;;4808600;29;20115;-92
2023/10/15 04:56:21;;;;;;;6.57;1.80;;;12.40;75.80;;;;;;4809342;29;20051;-93
2023/10/15 04:58:49;;;;;;;9.25;1.92;;;12.50;76.40;;;;;;4809007;29;20082;-93
2023/10/15 05:01:16;;;;;;;8.88;2.30;;;12.50;76.30;;;;;;4809195;29;20055;-93
2023/10/15 05:03:45;;;;;;;11.13;1.75;;;12.50;76.40;;;;;;4808863;29;20142;-94
2023/10/15 05:06:13;;;;;;;7.63;1.60;;;12.50;75.50;;;;;;4823859;29;20100;-92
2023/10/15 05:08:40;;;;;;;17.03;2.00;;;12.50;75.60;;;;;;4809367;29;20082;-92
2023/10/15 05:11:11;;;;;;;8.35;1.23;;;12.50;74.80;;;;;;4826934;29;20046;-92
2023/10/15 05:13:38;;;;;;;6.07;1.17;;;12.40;72.90;;;;;;4827002;29;20050;-92
2023/10/15 05:16:05;;;;;;;8.27;0.60;;;12.10;67.90;;;;;;4827121;29;20099;-92
2023/10/15 05:18:32;;;;;;;7.30;0.70;;;11.70;67.20;;;;;;4812269;29;20054;-92
2023/10/15 05:21:00;;;;;;;6.77;0.60;;;11.40;68.70;;;;;;4812300;29;20050;-92
2023/10/15 05:23:28;;;;;;;3.13;0.50;;;11.40;70.10;;;;;;4826927;29;20103;-92
2023/10/15 05:25:56;;;;;;;7.07;0.90;;;11.30;69.60;;;;;;4811996;29;20054;-92
2023/10/15 05:28:24;;;;;;;6.00;0.80;;;11.20;69.40;;;;;;4818609;29;20062;-92
2023/10/15 05:30:52;;;;;;;8.35;1.00;;;11.10;69.60;;;;;;4808800;29;20051;-92
2023/10/15 05:33:20;;;;;;;8.97;0.90;;;11.20;69.80;;;;;;4801107;29;20509;-92
2023/10/15 05:35:48;;;;;;;5.70;0.80;;;11.40;70.70;;;;;;4825354;29;20047;-93
2023/10/15 05:38:16;;;;;;;5.57;1.08;;;11.50;71.50;;;;;;4826868;29;20054;-92
2023/10/15 05:40:47;;;;;;;7.93;1.00;;;11.50;72.60;;;;;;4811828;29;20141;-93
2023/10/15 05:43:14;;;;;;;5.68;0.95;;;11.60;72.50;;;;;;4811770;29;20159;-93
2023/10/15 05:45:45;;;;;;;8.90;0.90;;;11.70;71.90;;;;;;4811909;29;20082;-93
2023/10/15 05:48:12;;;;;;;6.57;0.85;;;11.70;71.70;;;;;;4811756;29;20050;-96
2023/10/15 05:50:39;;;;;;;8.68;0.80;;;11.60;70.60;;;;;;4811866;29;20062;-96
2023/10/15 05:53:07;;;;;;;8.23;1.38;;;11.50;70.50;;;;;;4826871;29;20145;-95
2023/10/15 05:55:34;;;;;;;6.35;0.75;;;11.50;70.90;;;;;;4811634;29;20054;-95
2023/10/15 05:58:01;;;;;;;3.77;0.50;;;11.50;71.10;;;;;;4826503;29;20391;-96
2023/10/15 06:00:29;;;;;;;6.90;1.05;;;11.50;71.60;;;;;;4826405;29;20577;-92
2023/10/15 06:02:56;;;;;;;7.20;0.85;;;11.50;71.50;;;;;;4811232;29;20493;-92
2023/10/15 06:05:24;;;;;;;6.50;1.10;;;11.50;71.20;;;;;;4826199;29;20051;-92
2023/10/15 06:07:54;;;;;;;7.55;1.23;;;11.50;72.40;;;;;;4826524;29;20073;-92
2023/10/15 06:10:22;;;;;;;8.10;1.20;;;11.50;71.30;;;;;;4826334;29;20052;-92
2023/10/15 06:12:49;;;;;;;8.65;0.90;;;11.50;71.30;;;;;;4811405;29;20498;-93
2023/10/15 06:15:16;;;;;;;9.02;0.98;;;11.60;70.70;;;;;;4825977;29;20089;-93
2023/10/15 06:17:47;;;;;;;5.63;0.90;;;11.70;71.50;;;;;;4811298;29;20058;-93
2023/10/15 06:20:15;;;;;;;5.90;1.10;;;11.70;72.40;;;;;;4826310;29;20050;-93
2023/10/15 06:22:48;;;;;;;6.67;1.20;;;11.70;71.30;;;;;;4811112;29;20462;-93
2023/10/15 06:25:18;;;;;;;7.43;1.20;;;11.70;70.90;;;;;;4825984;29;20095;-93
2023/10/15 06:27:46;;;;;;;8.52;1.48;;;11.70;70.90;;;;;;4826168;29;20050;-92
2023/10/15 06:30:16;;;;;;;5.18;0.82;;;11.80;71.40;;;;;;4826209;29;20054;-91
2023/10/15 06:32:52;;;;;;;6.22;0.85;;;11.60;70.50;;;;;;4811428;29;20054;-92
2023/10/15 06:35:22;;;;;;;5.40;0.87;;;11.50;68.80;;;;;;4811093;29;20057;-92
2023/10/15 06:37:51;;;;;;;11.73;1.08;;;11.40;69.20;;;;;;4811033;29;20462;-93
2023/10/15 06:40:19;;;;;;;10.50;1.08;;;11.30;68.50;;;;;;4811073;29;20058;-92
2023/10/15 06:42:59;;;;;;;8.57;0.75;;;11.20;68.30;;;;;;4811182;29;20054;-92
2023/10/15 06:45:28;;;;;;;8.07;0.73;;;11.30;68.50;;;;;;4825711;29;20058;-92
2023/10/15 06:47:55;;;;;;;7.10;1.10;;;11.30;68.10;;;;;;4810590;29;20184;-93
2023/10/15 06:50:23;;;;;;;4.78;1.10;;;11.40;69.10;;;;;;4826053;29;20061;-93
2023/10/15 06:52:53;;;;;;;8.20;1.00;;;11.40;68.20;;;;;;4810778;29;20052;-92
2023/10/15 06:55:21;;;;;;;9.07;0.88;;;11.20;68.10;;;;;;4810869;29;20137;-93
2023/10/15 06:57:49;;;;;;;5.35;0.93;;;11.10;67.80;;;;;;4812611;29;20046;-96
2023/10/15 07:00:21;;;;;;;7.57;1.07;;;11.00;66.20;;;;;;4813198;29;20050;-94
2023/10/15 07:02:50;;;;;;;9.85;1.90;;;11.10;67.40;;;;;;4809398;29;20054;-95
2023/10/15 07:05:20;;;;;;;10.60;1.50;;;11.10;66.30;;;;;;4807571;29;20070;-95
2023/10/15 07:07:48;;;;;;;8.02;1.38;;;11.20;67.70;;;;;;4808370;29;20145;-90
2023/10/15 07:10:16;;;;;;;10.05;1.60;;;11.20;67.90;;;;;;4822999;29;20046;-88
2023/10/15 07:12:50;;;;;;;8.83;1.70;;;11.10;66.40;;;;;;4822543;29;20127;-84
2023/10/15 07:15:20;;;;;;;9.32;1.77;;;11.10;66.60;;;;;;4822455;29;20533;-84
2023/10/15 07:17:49;;;;;;;7.63;1.23;;;11.30;67.60;;;;;;4806619;29;20413;-84
2023/10/15 07:20:18;;;;;;;9.10;1.50;;;11.30;66.80;;;;;;4814389;29;20145;-83
2023/10/15 07:22:48;;;;;;;10.68;1.45;;;11.50;67.50;;;;;;4807035;29;20050;-83
2023/10/15 07:25:17;;;;;;;4.07;0.73;;;11.40;65.60;;;;;;4807268;29;20038;-83
2023/10/15 07:27:48;;;;;;;5.72;0.80;;;11.40;66.70;;;;;;4822460;29;20046;-84
2023/10/15 07:30:19;;;;;;;5.90;0.80;;;11.50;68.60;;;;;;4821563;29;20506;-83
2023/10/15 07:32:48;;;;;;;4.80;0.82;;;11.50;66.90;;;;;;4821666;29;20046;-84
2023/10/15 07:35:15;;;;;;;5.28;0.70;;;11.50;66.00;;;;;;4805456;29;20050;-83
2023/10/15 07:37:44;;;;;;;4.83;0.90;;;11.50;67.50;;;;;;4822156;29;20137;-87
2023/10/15 07:40:16;;;;;;;5.95;0.88;;;11.50;66.50;;;;;;4807768;29;20050;-88
2023/10/15 07:42:52;;;;;;;5.88;0.93;;;11.50;65.90;;;;;;4821117;29;20050;-87
2023/10/15 07:45:27;;;;;;;7.85;1.05;;;11.60;67.00;;;;;;4807361;29;20046;-88
2023/10/15 07:47:56;;;;;;;7.88;1.10;;;11.70;67.90;;;;;;4822554;29;20072;-83
2023/10/15 07:50:25;;;;;;;8.43;1.10;;;11.80;69.90;;;;;;4820471;29;20146;-84
2023/10/15 07:52:53;;;;;;;6.60;1.10;;;11.90;68.50;;;;;;4806663;29;20043;-83
2023/10/15 07:55:24;;;;;;;9.50;1.40;;;11.90;69.00;;;;;;4804396;29;20102;-83
2023/10/15 07:57:52;;;;;;;7.97;1.25;;;11.90;67.80;;;;;;4820538;29;20497;-83
2023/10/15 08:00:33;;;;;;;9.77;1.73;;;11.90;66.60;;;;;;4821924;29;20054;-83
2023/10/15 08:03:01;;;;;;;10.00;2.10;;;11.90;66.60;;;;;;4802235;29;20573;-84
2023/10/15 08:05:32;;;;;;;11.70;2.22;;;12.00;66.80;;;;;;4806824;29;20043;-83
2023/10/15 08:08:03;;;;;;;16.20;1.65;;;12.00;67.40;;;;;;4821611;29;20050;-85
2023/10/15 08:10:32;;;;;;;6.82;1.00;;;11.90;65.20;;;;;;4821953;29;20054;-85
2023/10/15 08:13:00;;;;;;;6.95;1.15;;;11.90;64.90;;;;;;4805467;29;20133;-84
2023/10/15 08:15:28;;;;;;;10.40;1.30;;;11.80;65.60;;;;;;4821899;29;20050;-85
2023/10/15 08:17:58;;;;;;;14.07;0.90;;;11.80;66.50;;;;;;4822184;29;20046;-87
2023/10/15 08:20:25;;;;;;;6.90;0.90;;;11.80;65.70;;;;;;4821881;29;20103;-84
2023/10/15 08:22:52;;;;;;;6.03;0.88;;;11.80;64.80;;;;;;4821911;29;20064;-84
2023/10/15 08:25:21;;;;;;;7.35;1.20;;;11.90;64.10;;;;;;4821700;29;20095;-86
2023/10/15 08:27:49;;;;;;;6.57;0.97;;;11.80;63.10;;;;;;4822246;29;20069;-84
2023/10/15 08:30:17;;;;;;;4.35;0.82;;;11.70;63.40;;;;;;4822717;29;20502;-85
2023/10/15 08:32:46;;;;;;;7.88;1.00;;;11.70;62.80;;;;;;4820349;29;20054;-82
2023/10/15 08:35:14;;;;;;;7.78;1.10;;;11.60;62.80;;;;;;4812846;29;20050;-84
2023/10/15 08:37:42;;;;;;;6.28;1.00;;;11.70;64.00;;;;;;4820602;29;20061;-83
2023/10/15 08:40:17;;;;;;;6.33;1.20;;;11.80;64.00;;;;;;4819555;29;20050;-83
2023/10/15 08:42:56;;;;;;;7.63;1.30;;;11.90;63.70;;;;;;4824625;29;20058;-82
2023/10/15 08:45:25;;;;;;;6.50;1.25;;;12.00;64.80;;;;;;4823751;29;20050;-83
2023/10/15 08:47:53;;;;;;;10.25;1.60;;;12.00;65.10;;;;;;4823968;29;20375;-82
2023/10/15 08:50:22;;;;;;;8.68;1.90;;;12.10;64.60;;;;;;4823050;29;20577;-82
2023/10/15 08:52:52;;;;;;;8.17;1.57;;;12.00;64.50;;;;;;4823635;29;20065;-83
2023/10/15 08:55:24;;;;;;;8.00;1.63;;;12.00;64.50;;;;;;4803347;29;20060;-84
2023/10/15 08:57:54;;;;;;;8.63;1.80;;;12.10;64.80;;;;;;4824428;29;20141;-84
2023/10/15 09:00:25;;;;;;;10.68;2.50;;;12.20;65.50;;;;;;4809950;29;20111;-84
2023/10/15 09:02:57;;;;;;;13.60;2.67;;;12.30;67.10;;;;;;4809784;29;20054;-84
2023/10/15 09:05:25;;;;;;;10.07;2.03;;;12.30;65.80;;;;;;4802320;29;20133;-84
2023/10/15 09:07:56;;;;;;;9.30;1.60;;;12.10;65.50;;;;;;4806289;29;20390;-85
2023/10/15 09:10:23;;;;;;;9.82;2.72;;;12.00;65.80;;;;;;4821537;29;20042;-84
2023/10/15 09:12:50;;;;;;;9.20;2.15;;;11.90;67.30;;;;;;4807584;29;20038;-85
2023/10/15 09:15:19;;;;;;;9.60;2.50;;;11.80;68.20;;;;;;4807436;29;20046;-85
2023/10/15 09:17:59;;;;;;;8.87;1.67;;;11.80;68.90;;;;;;4807663;29;20053;-84
2023/10/15 09:20:27;;;;;;;10.13;1.60;;;11.70;67.70;;;;;;4821984;29;20058;-84
2023/10/15 09:22:57;;;;;;;8.70;1.85;;;11.50;69.50;;;;;;4818425;29;20406;-84
2023/10/15 09:25:29;;;;;;;6.85;1.70;;;11.50;70.90;;;;;;4823089;29;20451;-85
2023/10/15 09:27:58;;;;;;;6.03;1.83;;;11.50;70.70;;;;;;4808900;29;20521;-85
2023/10/15 09:30:32;;;;;;;13.43;2.67;;;11.50;71.40;;;;;;4823130;29;20406;-85
2023/10/15 09:32:59;;;;;;;8.95;2.80;;;11.50;71.20;;;;;;4823075;29;20585;-84
2023/10/15 09:35:29;;;;;;;8.10;2.65;;;11.50;70.90;;;;;;4808534;29;20054;-85
2023/10/15 09:37:57;;;;;;;9.20;3.38;;;11.50;71.60;;;;;;4814977;29;20512;-84
2023/10/15 09:40:30;;;;;;;10.82;3.45;;;11.30;71.30;;;;;;4809239;29;20512;-85
2023/10/15 09:42:59;;;;;;;8.17;3.43;;;11.40;73.10;;;;;;4823301;29;20054;-85
2023/10/15 09:45:30;;;;;;;8.40;3.10;;;11.50;71.50;;;;;;4807322;29;20479;-84
2023/10/15 09:47:58;;;;;;;13.90;6.43;;;11.60;70.60;;;;;;4806846;29;20047;-84
2023/10/15 09:50:38;;;;;;;14.88;6.10;;;11.70;72.20;;;;;;4807782;29;20082;-84
2023/10/15 09:53:12;;;;;;;13.75;5.80;;;11.80;72.70;;;;;;4821891;29;20038;-85
2023/10/15 09:55:41;;;;;;;10.23;4.00;;;12.00;73.30;;;;;;4822951;29;20513;-84
2023/10/15 09:58:10;;;;;;;10.35;3.67;;;12.00;71.40;;;;;;4823286;29;20062;-85
2023/10/15 10:01:08;;;;;;;8.40;3.42;;;12.20;70.50;;;;;;4813637;29;20146;-85
2023/10/15 10:03:49;;;;;;;10.20;3.65;;;12.30;70.00;;;;;;4807951;29;20524;-83
2023/10/15 10:06:40;;;;;;;8.20;3.80;;;12.30;69.30;;;;;;4807061;29;20046;-84
2023/10/15 10:09:21;;;;;;;9.13;3.80;;;12.30;69.80;;;;;;4821427;29;20063;-84
2023/10/15 10:11:51;;;;;;;10.25;4.00;;;12.30;70.30;;;;;;4807577;29;20394;-84
2023/10/15 10:14:55;;;;;;;11.10;4.40;;;12.30;69.90;;;;;;4822844;29;20402;-85
2023/10/15 10:17:23;;;;;;;9.40;3.78;;;12.40;70.30;;;;;;4807025;29;20042;-85
2023/10/15 10:19:52;;;;;;;8.90;4.05;;;12.50;71.30;;;;;;4807296;29;20489;-84
2023/10/15 10:22:29;;;;;;;16.57;6.60;;;12.50;71.10;;;;;;4822625;29;20065;-85
2023/10/15 10:24:59;;;;;;;29.08;11.65;;;12.60;70.40;;;;;;4806244;29;20064;-83
2023/10/15 10:27:26;;;;;;;21.48;6.70;;;12.70;70.20;;;;;;4807313;29;20066;-85
2023/10/15 10:30:14;;;;;;;17.92;6.10;;;12.70;69.40;;;;;;4805927;29;20494;-84
2023/10/15 10:32:41;;;;;;;14.10;5.72;;;12.70;69.10;;;;;;4821718;29;20051;-85
2023/10/15 10:35:20;;;;;;;11.63;5.13;;;12.80;70.00;;;;;;4822711;29;20050;-84
2023/10/15 10:38:06;;;;;;;13.43;5.10;;;12.60;70.10;;;;;;4806057;29;20050;-84
2023/10/15 10:40:45;;;;;;;13.27;5.22;;;12.70;70.00;;;;;;4821715;29;20082;-85
2023/10/15 10:43:27;;;;;;;10.73;4.15;;;12.70;70.00;;;;;;4822122;29;20106;-84
2023/10/15 10:45:55;;;;;;;14.65;4.65;;;12.80;70.90;;;;;;4821842;29;20142;-85
2023/10/15 10:48:27;;;;;;;10.63;3.23;;;12.80;68.90;;;;;;4809801;29;20074;-85
2023/10/15 10:51:12;;;;;;;10.48;3.00;;;12.90;67.00;;;;;;4806594;29;20157;-84
2023/10/15 10:54:00;;;;;;;7.57;2.55;;;13.00;67.00;;;;;;4821292;29;20512;-85
2023/10/15 10:56:39;;;;;;;8.93;3.00;;;13.00;67.20;;;;;;4815562;29;20054;-84
2023/10/15 10:59:11;;;;;;;7.63;2.47;;;12.90;67.30;;;;;;4806230;29;20141;-84
2023/10/15 11:01:43;;;;;;;8.93;2.70;;;12.90;67.20;;;;;;4806406;29;20078;-84
2023/10/15 11:04:11;;;;;;;10.23;3.10;;;12.80;66.70;;;;;;4821497;29;20055;-84
2023/10/15 11:06:42;;;;;;;8.57;2.72;;;12.80;67.50;;;;;;4822004;29;20039;-84
2023/10/15 11:09:16;;;;;;;8.57;3.30;;;12.70;68.70;;;;;;4821780;29;20453;-84
2023/10/15 11:11:55;;;;;;;11.68;3.25;;;12.70;69.70;;;;;;4806727;29;20137;-85
2023/10/15 11:14:24;;;;;;;9.80;3.20;;;12.60;68.90;;;;;;4821896;29;20613;-85
2023/10/15 11:16:54;;;;;;;8.98;2.80;;;12.70;69.10;;;;;;4821672;29;20046;-85
2023/10/15 11:19:29;;;;;;;8.07;2.70;;;12.80;68.40;;;;;;4813347;29;20054;-85
2023/10/15 11:21:57;;;;;;;9.57;3.28;;;12.70;67.30;;;;;;4821443;29;20103;-84
2023/10/15 11:24:26;;;;;;;12.82;4.28;;;12.80;67.00;;;;;;4821319;29;20079;-85
2023/10/15 11:26:55;;;;;;;11.97;4.17;;;12.90;67.20;;;;;;4807624;29;20053;-84
2023/10/15 11:29:24;;;;;;;11.38;3.47;;;12.90;67.00;;;;;;4821247;29;20047;-85
2023/10/15 11:31:56;;;;;;;7.70;2.88;;;13.00;65.10;;;;;;4806538;29;20765;-84
2023/10/15 11:34:25;;;;;;;13.77;3.10;;;13.00;62.90;;;;;;4822870;29;20165;-84
2023/10/15 11:36:57;;;;;;;7.88;2.60;;;13.00;63.50;;;;;;4806629;29;20057;-85
2023/10/15 11:39:38;;;;;;;7.37;2.47;;;13.00;61.40;;;;;;4821642;29;20050;-84
2023/10/15 11:42:10;;;;;;;7.63;2.50;;;12.80;60.90;;;;;;4821424;29;20078;-84
2023/10/15 11:44:41;;;;;;;8.27;2.63;;;12.60;61.40;;;;;;4821200;29;20046;-85
2023/10/15 11:47:16;;;;;;;7.30;2.75;;;12.50;61.60;;;;;;4819673;29;20050;-84
2023/10/15 11:49:44;;;;;;;8.35;2.60;;;12.50;62.00;;;;;;4805772;29;20043;-85
2023/10/15 11:52:14;;;;;;;6.47;2.30;;;12.50;62.00;;;;;;4821080;29;20053;-85
2023/10/15 11:54:54;;;;;;;7.50;2.75;;;12.50;61.30;;;;;;4820454;29;20057;-84
2023/10/15 11:57:26;;;;;;;7.45;2.40;;;12.60;62.00;;;;;;4819027;29;20058;-85
2023/10/15 12:00:22;;;;;;;11.07;3.20;;;12.70;62.00;;;;;;4821259;29;20094;-84
2023/10/15 12:02:50;;;;;;;9.30;3.40;;;13.00;61.50;;;;;;4806008;29;20158;-84
2023/10/15 12:05:17;;;;;;;10.47;4.13;;;13.00;63.40;;;;;;4805783;29;20050;-85
2023/10/15 12:07:44;;;;;;;9.10;3.85;;;13.00;63.70;;;;;;4820894;29;20379;-84
2023/10/15 12:10:15;;;;;;;7.63;2.65;;;12.90;63.50;;;;;;4821981;29;20417;-85
2023/10/15 12:12:42;;;;;;;10.63;2.63;;;12.90;63.40;;;;;;4820978;29;20129;-84
2023/10/15 12:15:09;;;;;;;8.93;2.35;;;12.80;62.40;;;;;;4805934;29;20518;-85
2023/10/15 12:17:36;;;;;;;6.70;2.20;;;12.70;62.60;;;;;;4824485;29;20054;-84
2023/10/15 12:20:06;;;;;;;8.07;2.10;;;12.80;62.30;;;;;;4809340;29;20141;-85
2023/10/15 12:22:46;;;;;;;8.20;2.28;;;12.80;63.10;;;;;;4824009;29;20068;-84
2023/10/15 12:25:13;;;;;;;8.88;2.45;;;12.90;63.10;;;;;;4815661;29;20077;-84
2023/10/15 12:27:40;;;;;;;10.23;2.33;;;13.10;63.00;;;;;;4809393;29;20073;-85
2023/10/15 12:30:12;;;;;;;8.27;2.40;;;13.20;61.70;;;;;;4809404;29;20050;-84
2023/10/15 12:32:39;;;;;;;6.00;1.60;;;13.30;61.90;;;;;;4809054;29;20054;-83
2023/10/15 12:35:13;;;;;;;6.43;1.40;;;13.20;59.30;;;;;;4809339;29;20111;-84
2023/10/15 12:37:40;;;;;;;6.90;1.33;;;13.10;56.30;;;;;;4809167;29;20047;-84
2023/10/15 12:40:31;;;;;;;5.15;1.30;;;13.10;54.40;;;;;;4824224;29;20050;-84
2023/10/15 12:43:08;;;;;;;4.30;1.50;;;13.20;54.30;;;;;;4823517;29;20524;-84
2023/10/15 12:45:36;;;;;;;5.97;1.42;;;13.30;56.30;;;;;;4823436;29;20056;-84
2023/10/15 12:48:05;;;;;;;6.03;1.25;;;13.30;57.80;;;;;;4808860;29;20054;-84
2023/10/15 12:50:34;;;;;;;6.85;1.90;;;13.10;59.00;;;;;;4823622;29;20506;-84
2023/10/15 12:53:02;;;;;;;8.70;1.80;;;13.00;61.70;;;;;;4807917;29;20053;-85
2023/10/15 12:55:29;;;;;;;8.23;1.87;;;13.10;59.20;;;;;;4824110;29;20090;-84
2023/10/15 12:57:57;;;;;;;6.07;1.42;;;13.00;57.50;;;;;;4823738;29;20046;-85
2023/10/15 13:00:27;;;;;;;6.22;1.33;;;13.00;57.00;;;;;;4823672;29;20498;-84
2023/10/15 13:02:54;;;;;;;7.95;1.50;;;13.00;55.50;;;;;;4809953;29;20555;-84
2023/10/15 13:05:23;;;;;;;7.00;1.70;;;13.10;58.30;;;;;;4808112;29;20533;-85
2023/10/15 13:07:52;;;;;;;7.70;1.73;;;13.20;56.10;;;;;;4823727;29;20060;-84
2023/10/15 13:10:21;;;;;;;5.93;1.55;;;13.50;56.50;;;;;;4823165;29;20046;-85
2023/10/15 13:12:49;;;;;;;5.97;1.55;;;13.50;56.30;;;;;;4808265;29;20080;-84
2023/10/15 13:15:18;;;;;;;5.43;1.65;;;13.60;58.20;;;;;;4822266;29;20038;-84
2023/10/15 13:17:46;;;;;;;6.40;1.70;;;13.80;58.00;;;;;;4823404;29;20057;-84
2023/10/15 13:20:14;;;;;;;7.63;1.80;;;14.00;57.60;;;;;;4808855;29;20051;-84
2023/10/15 13:22:44;;;;;;;5.88;1.60;;;14.00;58.00;;;;;;4823330;29;20054;-84
2023/10/15 13:25:12;;;;;;;6.30;1.75;;;14.00;57.00;;;;;;4808236;29;20062;-84
2023/10/15 13:27:40;;;;;;;8.93;1.88;;;13.80;55.70;;;;;;4822288;29;20074;-84
2023/10/15 13:30:15;;;;;;;5.63;1.60;;;13.70;57.70;;;;;;4823377;29;20110;-85